sensor_id;sensor_type;location;lat;lon;timestamp;temperature;humidity
69626;DHT22;56847;51.984;5.088;2022-08-01T00:00:47;21.80;77.20
69626;DHT22;56847;51.984;5.088;2022-08-01T00:03:14;21.70;77.20
69626;DHT22;56847;51.984;5.088;2022-08-01T00:05:40;21.70;77.10
69626;DHT22;56847;51.984;5.088;2022-08-01T00:08:10;21.80;77.20
69626;DHT22;56847;51.984;5.088;2022-08-01T00:10:37;21.70;76.90
69626;DHT22;56847;51.984;5.088;2022-08-01T00:13:04;21.80;77.00
69626;DHT22;56847;51.984;5.088;2022-08-01T00:15:36;21.80;77.00
69626;DHT22;56847;51.984;5.088;2022-08-01T00:18:03;21.80;76.80
69626;DHT22;56847;51.984;5.088;2022-08-01T00:20:30;21.80;76.90
69626;DHT22;56847;51.984;5.088;2022-08-01T00:22:57;21.80;76.90
69626;DHT22;56847;51.984;5.088;2022-08-01T00:25:25;21.80;76.70
69626;DHT22;56847;51.984;5.088;2022-08-01T00:28:00;21.80;76.80
69626;DHT22;56847;51.984;5.088;2022-08-01T00:30:30;21.80;76.70
69626;DHT22;56847;51.984;5.088;2022-08-01T00:32:57;21.80;76.80
69626;DHT22;56847;51.984;5.088;2022-08-01T00:35:24;21.80;76.70
69626;DHT22;56847;51.984;5.088;2022-08-01T00:37:51;21.80;76.70
69626;DHT22;56847;51.984;5.088;2022-08-01T00:40:19;21.80;76.60
69626;DHT22;56847;51.984;5.088;2022-08-01T00:42:46;21.70;76.60
69626;DHT22;56847;51.984;5.088;2022-08-01T00:45:13;21.60;76.60
69626;DHT22;56847;51.984;5.088;2022-08-01T00:47:43;21.50;76.70
69626;DHT22;56847;51.984;5.088;2022-08-01T00:50:10;21.50;77.00
69626;DHT22;56847;51.984;5.088;2022-08-01T00:52:39;21.40;77.10
69626;DHT22;56847;51.984;5.088;2022-08-01T00:55:07;21.40;77.40
69626;DHT22;56847;51.984;5.088;2022-08-01T00:57:39;21.30;77.60
69626;DHT22;56847;51.984;5.088;2022-08-01T01:00:27;21.40;77.70
69626;DHT22;56847;51.984;5.088;2022-08-01T01:02:56;21.30;77.80
69626;DHT22;56847;51.984;5.088;2022-08-01T01:05:23;21.40;77.90
69626;DHT22;56847;51.984;5.088;2022-08-01T01:08:01;21.40;77.90
69626;DHT22;56847;51.984;5.088;2022-08-01T01:10:44;21.40;78.00
69626;DHT22;56847;51.984;5.088;2022-08-01T01:13:27;21.40;78.00
69626;DHT22;56847;51.984;5.088;2022-08-01T01:16:14;21.40;78.10
69626;DHT22;56847;51.984;5.088;2022-08-01T01:18:47;21.40;78.00
69626;DHT22;56847;51.984;5.088;2022-08-01T01:27:18;21.40;78.00
69626;DHT22;56847;51.984;5.088;2022-08-01T01:29:54;21.40;78.10
69626;DHT22;56847;51.984;5.088;2022-08-01T01:32:39;21.30;78.30
69626;DHT22;56847;51.984;5.088;2022-08-01T01:35:10;21.40;78.20
69626;DHT22;56847;51.984;5.088;2022-08-01T01:37:39;21.30;78.30
69626;DHT22;56847;51.984;5.088;2022-08-01T01:40:09;21.40;78.40
69626;DHT22;56847;51.984;5.088;2022-08-01T01:42:38;21.40;78.40
69626;DHT22;56847;51.984;5.088;2022-08-01T01:45:07;21.40;78.30
69626;DHT22;56847;51.984;5.088;2022-08-01T01:47:36;21.40;78.30
69626;DHT22;56847;51.984;5.088;2022-08-01T01:50:05;21.40;78.30
69626;DHT22;56847;51.984;5.088;2022-08-01T01:52:33;21.40;78.30
69626;DHT22;56847;51.984;5.088;2022-08-01T01:55:04;21.40;78.20
69626;DHT22;56847;51.984;5.088;2022-08-01T01:57:33;21.30;78.30
69626;DHT22;56847;51.984;5.088;2022-08-01T02:00:03;21.20;78.50
69626;DHT22;56847;51.984;5.088;2022-08-01T02:02:31;21.10;78.80
69626;DHT22;56847;51.984;5.088;2022-08-01T02:05:00;21.10;79.10
69626;DHT22;56847;51.984;5.088;2022-08-01T02:07:29;21.10;79.30
69626;DHT22;56847;51.984;5.088;2022-08-01T02:09:57;21.10;79.40
69626;DHT22;56847;51.984;5.088;2022-08-01T02:12:25;21.00;79.50
69626;DHT22;56847;51.984;5.088;2022-08-01T02:14:54;21.00;79.50
69626;DHT22;56847;51.984;5.088;2022-08-01T02:17:23;21.00;79.60
69626;DHT22;56847;51.984;5.088;2022-08-01T02:19:53;21.00;79.50
69626;DHT22;56847;51.984;5.088;2022-08-01T02:22:33;21.00;79.60
69626;DHT22;56847;51.984;5.088;2022-08-01T02:25:18;21.00;79.60
69626;DHT22;56847;51.984;5.088;2022-08-01T02:27:58;21.00;79.60
69626;DHT22;56847;51.984;5.088;2022-08-01T02:30:32;21.00;79.70
69626;DHT22;56847;51.984;5.088;2022-08-01T02:33:22;21.00;79.70
69626;DHT22;56847;51.984;5.088;2022-08-01T02:35:54;21.00;79.80
69626;DHT22;56847;51.984;5.088;2022-08-01T02:38:45;20.90;80.00
69626;DHT22;56847;51.984;5.088;2022-08-01T02:41:19;21.00;80.10
69626;DHT22;56847;51.984;5.088;2022-08-01T02:43:49;20.90;80.10
69626;DHT22;56847;51.984;5.088;2022-08-01T02:46:36;20.90;80.20
69626;DHT22;56847;51.984;5.088;2022-08-01T02:49:06;20.90;80.40
69626;DHT22;56847;51.984;5.088;2022-08-01T02:51:35;20.90;80.10
69626;DHT22;56847;51.984;5.088;2022-08-01T02:54:05;20.90;80.20
69626;DHT22;56847;51.984;5.088;2022-08-01T02:56:33;20.90;80.20
69626;DHT22;56847;51.984;5.088;2022-08-01T02:59:10;20.80;80.30
69626;DHT22;56847;51.984;5.088;2022-08-01T03:01:42;20.90;80.40
69626;DHT22;56847;51.984;5.088;2022-08-01T03:04:10;20.90;80.40
69626;DHT22;56847;51.984;5.088;2022-08-01T03:06:39;20.90;80.40
69626;DHT22;56847;51.984;5.088;2022-08-01T03:09:11;20.90;80.30
69626;DHT22;56847;51.984;5.088;2022-08-01T03:11:43;20.90;80.20
69626;DHT22;56847;51.984;5.088;2022-08-01T03:14:12;20.90;80.20
69626;DHT22;56847;51.984;5.088;2022-08-01T03:16:42;20.90;80.30
69626;DHT22;56847;51.984;5.088;2022-08-01T03:19:11;20.90;80.40
69626;DHT22;56847;51.984;5.088;2022-08-01T03:21:41;20.90;80.40
69626;DHT22;56847;51.984;5.088;2022-08-01T03:24:10;20.90;80.40
69626;DHT22;56847;51.984;5.088;2022-08-01T03:26:39;20.90;80.30
69626;DHT22;56847;51.984;5.088;2022-08-01T03:29:14;20.90;80.30
69626;DHT22;56847;51.984;5.088;2022-08-01T03:31:44;20.90;80.30
69626;DHT22;56847;51.984;5.088;2022-08-01T03:34:12;20.90;80.30
69626;DHT22;56847;51.984;5.088;2022-08-01T03:36:53;20.90;80.20
69626;DHT22;56847;51.984;5.088;2022-08-01T03:39:27;20.90;80.10
69626;DHT22;56847;51.984;5.088;2022-08-01T03:41:57;20.90;80.20
69626;DHT22;56847;51.984;5.088;2022-08-01T03:44:27;20.90;80.20
69626;DHT22;56847;51.984;5.088;2022-08-01T03:47:00;20.90;80.20
69626;DHT22;56847;51.984;5.088;2022-08-01T03:49:31;20.90;80.20
69626;DHT22;56847;51.984;5.088;2022-08-01T03:52:04;20.90;80.30
69626;DHT22;56847;51.984;5.088;2022-08-01T03:54:34;20.90;80.20
69626;DHT22;56847;51.984;5.088;2022-08-01T03:57:05;20.90;80.10
69626;DHT22;56847;51.984;5.088;2022-08-01T03:59:35;20.90;80.00
69626;DHT22;56847;51.984;5.088;2022-08-01T04:02:04;20.90;80.00
69626;DHT22;56847;51.984;5.088;2022-08-01T04:04:32;20.90;80.00
69626;DHT22;56847;51.984;5.088;2022-08-01T04:07:00;20.90;80.00
69626;DHT22;56847;51.984;5.088;2022-08-01T04:09:36;20.90;79.90
69626;DHT22;56847;51.984;5.088;2022-08-01T04:12:03;20.90;80.00
69626;DHT22;56847;51.984;5.088;2022-08-01T04:14:38;20.90;80.00
69626;DHT22;56847;51.984;5.088;2022-08-01T04:17:05;20.90;80.00
69626;DHT22;56847;51.984;5.088;2022-08-01T04:19:32;20.90;80.00
69626;DHT22;56847;51.984;5.088;2022-08-01T04:22:03;20.90;79.90
69626;DHT22;56847;51.984;5.088;2022-08-01T04:24:32;21.00;80.00
69626;DHT22;56847;51.984;5.088;2022-08-01T04:27:13;20.90;79.90
69626;DHT22;56847;51.984;5.088;2022-08-01T04:29:42;20.90;79.90
69626;DHT22;56847;51.984;5.088;2022-08-01T04:32:11;20.90;79.90
69626;DHT22;56847;51.984;5.088;2022-08-01T04:34:41;20.90;79.90
69626;DHT22;56847;51.984;5.088;2022-08-01T04:37:16;20.90;79.90
69626;DHT22;56847;51.984;5.088;2022-08-01T04:39:45;20.90;79.80
69626;DHT22;56847;51.984;5.088;2022-08-01T04:42:17;20.90;79.80
69626;DHT22;56847;51.984;5.088;2022-08-01T04:44:59;20.90;79.90
69626;DHT22;56847;51.984;5.088;2022-08-01T04:47:27;21.00;79.80
69626;DHT22;56847;51.984;5.088;2022-08-01T04:49:54;21.00;79.90
69626;DHT22;56847;51.984;5.088;2022-08-01T04:52:23;21.00;79.80
69626;DHT22;56847;51.984;5.088;2022-08-01T04:54:59;21.00;79.60
69626;DHT22;56847;51.984;5.088;2022-08-01T04:57:26;21.00;79.60
69626;DHT22;56847;51.984;5.088;2022-08-01T04:59:53;21.00;79.50
69626;DHT22;56847;51.984;5.088;2022-08-01T05:02:23;21.00;79.60
69626;DHT22;56847;51.984;5.088;2022-08-01T05:04:50;21.00;79.60
69626;DHT22;56847;51.984;5.088;2022-08-01T05:07:17;21.00;79.50
69626;DHT22;56847;51.984;5.088;2022-08-01T05:09:44;21.00;79.60
69626;DHT22;56847;51.984;5.088;2022-08-01T05:12:16;21.00;79.50
69626;DHT22;56847;51.984;5.088;2022-08-01T05:14:44;21.00;79.50
69626;DHT22;56847;51.984;5.088;2022-08-01T05:17:11;21.00;79.70
69626;DHT22;56847;51.984;5.088;2022-08-01T05:19:39;21.10;79.60
69626;DHT22;56847;51.984;5.088;2022-08-01T05:22:08;21.00;79.60
69626;DHT22;56847;51.984;5.088;2022-08-01T05:24:36;21.10;79.60
69626;DHT22;56847;51.984;5.088;2022-08-01T05:27:07;21.10;79.60
69626;DHT22;56847;51.984;5.088;2022-08-01T05:29:37;21.10;79.50
69626;DHT22;56847;51.984;5.088;2022-08-01T05:32:13;21.20;79.70
69626;DHT22;56847;51.984;5.088;2022-08-01T05:34:40;21.30;79.60
69626;DHT22;56847;51.984;5.088;2022-08-01T05:37:07;21.30;79.60
69626;DHT22;56847;51.984;5.088;2022-08-01T05:39:35;21.40;79.40
69626;DHT22;56847;51.984;5.088;2022-08-01T05:42:02;21.40;79.20
69626;DHT22;56847;51.984;5.088;2022-08-01T05:44:36;21.50;79.30
69626;DHT22;56847;51.984;5.088;2022-08-01T05:47:03;21.50;79.10
69626;DHT22;56847;51.984;5.088;2022-08-01T05:49:30;21.60;78.90
69626;DHT22;56847;51.984;5.088;2022-08-01T05:52:00;21.60;78.80
69626;DHT22;56847;51.984;5.088;2022-08-01T05:54:31;21.60;79.10
69626;DHT22;56847;51.984;5.088;2022-08-01T05:56:58;21.70;79.20
69626;DHT22;56847;51.984;5.088;2022-08-01T05:59:29;21.80;78.80
69626;DHT22;56847;51.984;5.088;2022-08-01T06:01:56;21.90;78.70
69626;DHT22;56847;51.984;5.088;2022-08-01T06:04:23;22.00;78.60
69626;DHT22;56847;51.984;5.088;2022-08-01T06:06:50;22.10;78.30
69626;DHT22;56847;51.984;5.088;2022-08-01T06:09:17;22.10;78.00
69626;DHT22;56847;51.984;5.088;2022-08-01T06:11:44;22.20;77.70
69626;DHT22;56847;51.984;5.088;2022-08-01T06:14:11;22.30;77.50
69626;DHT22;56847;51.984;5.088;2022-08-01T06:16:38;22.30;77.30
69626;DHT22;56847;51.984;5.088;2022-08-01T06:19:05;22.40;77.00
69626;DHT22;56847;51.984;5.088;2022-08-01T06:21:32;22.50;76.70
69626;DHT22;56847;51.984;5.088;2022-08-01T06:24:00;22.50;76.30
69626;DHT22;56847;51.984;5.088;2022-08-01T06:26:27;22.50;76.10
69626;DHT22;56847;51.984;5.088;2022-08-01T06:28:56;22.60;76.10
69626;DHT22;56847;51.984;5.088;2022-08-01T06:31:23;22.50;75.50
69626;DHT22;56847;51.984;5.088;2022-08-01T06:33:50;22.50;75.40
69626;DHT22;56847;51.984;5.088;2022-08-01T06:36:18;22.50;75.30
69626;DHT22;56847;51.984;5.088;2022-08-01T06:38:49;22.40;75.40
69626;DHT22;56847;51.984;5.088;2022-08-01T06:41:19;22.50;75.70
69626;DHT22;56847;51.984;5.088;2022-08-01T06:43:46;22.50;75.70
69626;DHT22;56847;51.984;5.088;2022-08-01T06:46:13;22.60;75.50
69626;DHT22;56847;51.984;5.088;2022-08-01T06:48:40;22.70;75.30
69626;DHT22;56847;51.984;5.088;2022-08-01T06:51:07;22.80;75.30
69626;DHT22;56847;51.984;5.088;2022-08-01T06:53:36;22.80;75.00
69626;DHT22;56847;51.984;5.088;2022-08-01T06:56:03;22.80;74.60
69626;DHT22;56847;51.984;5.088;2022-08-01T06:58:31;22.80;74.30
69626;DHT22;56847;51.984;5.088;2022-08-01T07:00:58;22.80;74.50
69626;DHT22;56847;51.984;5.088;2022-08-01T07:03:29;22.90;74.50
69626;DHT22;56847;51.984;5.088;2022-08-01T07:06:16;22.90;74.10
69626;DHT22;56847;51.984;5.088;2022-08-01T07:08:43;23.00;74.10
69626;DHT22;56847;51.984;5.088;2022-08-01T07:11:10;22.90;73.70
69626;DHT22;56847;51.984;5.088;2022-08-01T07:13:37;23.00;73.60
69626;DHT22;56847;51.984;5.088;2022-08-01T07:16:12;23.00;73.30
69626;DHT22;56847;51.984;5.088;2022-08-01T07:18:39;22.90;72.90
69626;DHT22;56847;51.984;5.088;2022-08-01T07:21:07;22.90;72.80
69626;DHT22;56847;51.984;5.088;2022-08-01T07:23:54;22.80;72.50
69626;DHT22;56847;51.984;5.088;2022-08-01T07:26:22;22.80;72.50
69626;DHT22;56847;51.984;5.088;2022-08-01T07:28:49;22.70;72.40
69626;DHT22;56847;51.984;5.088;2022-08-01T07:31:16;22.70;72.50
69626;DHT22;56847;51.984;5.088;2022-08-01T07:33:43;22.60;72.00
69626;DHT22;56847;51.984;5.088;2022-08-01T07:36:16;22.50;72.00
69626;DHT22;56847;51.984;5.088;2022-08-01T07:38:44;22.40;72.20
69626;DHT22;56847;51.984;5.088;2022-08-01T07:41:12;22.40;72.30
69626;DHT22;56847;51.984;5.088;2022-08-01T07:43:39;22.30;72.60
69626;DHT22;56847;51.984;5.088;2022-08-01T07:46:13;22.30;73.00
69626;DHT22;56847;51.984;5.088;2022-08-01T07:48:40;22.30;73.00
69626;DHT22;56847;51.984;5.088;2022-08-01T07:51:06;22.40;73.20
69626;DHT22;56847;51.984;5.088;2022-08-01T07:53:35;22.40;73.40
69626;DHT22;56847;51.984;5.088;2022-08-01T07:56:04;22.50;73.60
69626;DHT22;56847;51.984;5.088;2022-08-01T07:58:33;22.60;73.50
69626;DHT22;56847;51.984;5.088;2022-08-01T08:01:00;22.70;73.30
69626;DHT22;56847;51.984;5.088;2022-08-01T08:03:28;22.70;73.20
69626;DHT22;56847;51.984;5.088;2022-08-01T08:05:57;22.70;73.20
69626;DHT22;56847;51.984;5.088;2022-08-01T08:08:26;22.70;72.80
69626;DHT22;56847;51.984;5.088;2022-08-01T08:10:53;22.70;72.80
69626;DHT22;56847;51.984;5.088;2022-08-01T08:13:20;22.80;72.60
69626;DHT22;56847;51.984;5.088;2022-08-01T08:15:51;22.90;72.80
69626;DHT22;56847;51.984;5.088;2022-08-01T08:18:18;23.00;72.20
69626;DHT22;56847;51.984;5.088;2022-08-01T08:20:46;23.10;71.60
69626;DHT22;56847;51.984;5.088;2022-08-01T08:23:15;23.30;71.10
69626;DHT22;56847;51.984;5.088;2022-08-01T08:26:09;23.40;71.10
69626;DHT22;56847;51.984;5.088;2022-08-01T08:28:36;23.60;70.60
69626;DHT22;56847;51.984;5.088;2022-08-01T08:31:03;23.70;70.40
69626;DHT22;56847;51.984;5.088;2022-08-01T08:33:31;23.80;70.00
69626;DHT22;56847;51.984;5.088;2022-08-01T08:35:58;23.90;69.50
69626;DHT22;56847;51.984;5.088;2022-08-01T08:38:25;24.10;69.20
69626;DHT22;56847;51.984;5.088;2022-08-01T08:40:56;24.30;69.00
69626;DHT22;56847;51.984;5.088;2022-08-01T08:43:25;24.40;68.10
69626;DHT22;56847;51.984;5.088;2022-08-01T08:45:52;24.50;67.40
69626;DHT22;56847;51.984;5.088;2022-08-01T08:48:26;24.60;67.10
69626;DHT22;56847;51.984;5.088;2022-08-01T08:50:55;24.80;66.40
69626;DHT22;56847;51.984;5.088;2022-08-01T08:53:22;24.90;66.30
69626;DHT22;56847;51.984;5.088;2022-08-01T08:55:50;24.90;65.70
69626;DHT22;56847;51.984;5.088;2022-08-01T08:58:24;24.90;65.40
69626;DHT22;56847;51.984;5.088;2022-08-01T09:00:58;25.00;64.90
69626;DHT22;56847;51.984;5.088;2022-08-01T09:03:25;25.10;64.70
69626;DHT22;56847;51.984;5.088;2022-08-01T09:05:52;25.30;64.20
69626;DHT22;56847;51.984;5.088;2022-08-01T09:08:19;25.40;63.60
69626;DHT22;56847;51.984;5.088;2022-08-01T09:10:46;25.50;63.10
69626;DHT22;56847;51.984;5.088;2022-08-01T09:13:14;25.50;62.70
69626;DHT22;56847;51.984;5.088;2022-08-01T09:15:46;25.60;62.20
69626;DHT22;56847;51.984;5.088;2022-08-01T09:23:47;25.70;60.90
69626;DHT22;56847;51.984;5.088;2022-08-01T09:29:04;25.80;59.60
69626;DHT22;56847;51.984;5.088;2022-08-01T09:31:41;25.90;59.20
69626;DHT22;56847;51.984;5.088;2022-08-01T09:34:14;25.80;58.50
69626;DHT22;56847;51.984;5.088;2022-08-01T09:36:57;25.80;58.70
69626;DHT22;56847;51.984;5.088;2022-08-01T09:39:29;25.90;58.60
69626;DHT22;56847;51.984;5.088;2022-08-01T09:41:59;26.00;58.70
69626;DHT22;56847;51.984;5.088;2022-08-01T09:44:42;26.10;57.60
69626;DHT22;56847;51.984;5.088;2022-08-01T09:47:21;26.20;56.60
69626;DHT22;56847;51.984;5.088;2022-08-01T09:49:57;26.30;56.70
69626;DHT22;56847;51.984;5.088;2022-08-01T09:52:27;26.40;55.50
69626;DHT22;56847;51.984;5.088;2022-08-01T09:55:05;26.30;55.10
69626;DHT22;56847;51.984;5.088;2022-08-01T09:57:33;26.30;54.50
69626;DHT22;56847;51.984;5.088;2022-08-01T10:00:01;26.10;54.80
69626;DHT22;56847;51.984;5.088;2022-08-01T10:02:41;26.10;55.20
69626;DHT22;56847;51.984;5.088;2022-08-01T10:05:11;26.20;55.20
69626;DHT22;56847;51.984;5.088;2022-08-01T10:08:03;26.40;54.80
69626;DHT22;56847;51.984;5.088;2022-08-01T10:10:33;26.50;54.20
69626;DHT22;56847;51.984;5.088;2022-08-01T10:13:03;26.70;54.40
69626;DHT22;56847;51.984;5.088;2022-08-01T10:15:31;26.90;54.00
69626;DHT22;56847;51.984;5.088;2022-08-01T10:18:06;27.10;53.40
69626;DHT22;56847;51.984;5.088;2022-08-01T10:20:42;27.10;53.10
69626;DHT22;56847;51.984;5.088;2022-08-01T10:23:10;27.00;53.20
69626;DHT22;56847;51.984;5.088;2022-08-01T10:25:43;27.10;52.90
69626;DHT22;56847;51.984;5.088;2022-08-01T10:28:17;27.10;53.10
69626;DHT22;56847;51.984;5.088;2022-08-01T10:30:50;27.10;52.80
69626;DHT22;56847;51.984;5.088;2022-08-01T10:33:22;27.30;52.70
69626;DHT22;56847;51.984;5.088;2022-08-01T10:36:11;27.50;52.10
69626;DHT22;56847;51.984;5.088;2022-08-01T10:38:39;27.60;52.00
69626;DHT22;56847;51.984;5.088;2022-08-01T10:41:10;27.70;51.60
69626;DHT22;56847;51.984;5.088;2022-08-01T10:43:39;27.80;51.00
69626;DHT22;56847;51.984;5.088;2022-08-01T10:46:12;27.90;50.80
69626;DHT22;56847;51.984;5.088;2022-08-01T10:49:01;28.00;50.50
69626;DHT22;56847;51.984;5.088;2022-08-01T10:51:29;28.10;50.10
69626;DHT22;56847;51.984;5.088;2022-08-01T10:54:16;28.20;50.20
69626;DHT22;56847;51.984;5.088;2022-08-01T10:56:46;28.20;49.40
69626;DHT22;56847;51.984;5.088;2022-08-01T10:59:34;28.20;49.10
69626;DHT22;56847;51.984;5.088;2022-08-01T11:02:27;28.30;48.30
69626;DHT22;56847;51.984;5.088;2022-08-01T11:05:09;28.20;48.60
69626;DHT22;56847;51.984;5.088;2022-08-01T11:07:48;28.10;48.10
69626;DHT22;56847;51.984;5.088;2022-08-01T11:10:39;28.10;48.00
69626;DHT22;56847;51.984;5.088;2022-08-01T11:13:06;28.00;47.80
69626;DHT22;56847;51.984;5.088;2022-08-01T11:15:40;28.00;48.30
69626;DHT22;56847;51.984;5.088;2022-08-01T11:18:30;28.00;48.10
69626;DHT22;56847;51.984;5.088;2022-08-01T11:20:59;27.80;48.00
69626;DHT22;56847;51.984;5.088;2022-08-01T11:23:48;27.60;48.60
69626;DHT22;56847;51.984;5.088;2022-08-01T11:26:16;27.50;48.60
69626;DHT22;56847;51.984;5.088;2022-08-01T11:29:16;27.40;48.90
69626;DHT22;56847;51.984;5.088;2022-08-01T11:31:49;27.40;48.90
69626;DHT22;56847;51.984;5.088;2022-08-01T11:34:17;27.50;49.20
69626;DHT22;56847;51.984;5.088;2022-08-01T11:36:45;27.60;48.80
69626;DHT22;56847;51.984;5.088;2022-08-01T11:39:29;27.70;48.30
69626;DHT22;56847;51.984;5.088;2022-08-01T11:42:18;27.80;48.40
69626;DHT22;56847;51.984;5.088;2022-08-01T11:44:50;27.80;48.00
69626;DHT22;56847;51.984;5.088;2022-08-01T11:47:18;27.90;48.00
69626;DHT22;56847;51.984;5.088;2022-08-01T11:49:48;27.90;47.70
69626;DHT22;56847;51.984;5.088;2022-08-01T11:52:30;27.90;47.40
69626;DHT22;56847;51.984;5.088;2022-08-01T11:57:35;27.80;47.70
69626;DHT22;56847;51.984;5.088;2022-08-01T12:02:45;28.00;47.60
69626;DHT22;56847;51.984;5.088;2022-08-01T12:05:15;27.90;47.30
69626;DHT22;56847;51.984;5.088;2022-08-01T12:07:45;28.00;47.60
69626;DHT22;56847;51.984;5.088;2022-08-01T12:10:21;28.30;47.40
69626;DHT22;56847;51.984;5.088;2022-08-01T12:12:54;28.60;47.00
69626;DHT22;56847;51.984;5.088;2022-08-01T12:15:23;28.80;46.60
69626;DHT22;56847;51.984;5.088;2022-08-01T12:17:56;28.80;46.10
69626;DHT22;56847;51.984;5.088;2022-08-01T12:23:11;28.20;45.60
69626;DHT22;56847;51.984;5.088;2022-08-01T12:25:39;28.30;45.70
69626;DHT22;56847;51.984;5.088;2022-08-01T12:28:08;28.20;45.40
69626;DHT22;56847;51.984;5.088;2022-08-01T12:30:37;28.20;45.10
69626;DHT22;56847;51.984;5.088;2022-08-01T12:33:09;28.20;44.70
69626;DHT22;56847;51.984;5.088;2022-08-01T12:35:38;28.20;44.80
69626;DHT22;56847;51.984;5.088;2022-08-01T12:38:07;28.30;44.40
69626;DHT22;56847;51.984;5.088;2022-08-01T12:40:45;28.40;44.20
69626;DHT22;56847;51.984;5.088;2022-08-01T12:43:20;28.40;43.60
69626;DHT22;56847;51.984;5.088;2022-08-01T12:45:56;28.40;43.90
69626;DHT22;56847;51.984;5.088;2022-08-01T12:48:25;28.60;43.40
69626;DHT22;56847;51.984;5.088;2022-08-01T12:50:52;28.70;42.70
69626;DHT22;56847;51.984;5.088;2022-08-01T12:53:20;28.80;42.10
69626;DHT22;56847;51.984;5.088;2022-08-01T12:55:52;28.80;41.90
69626;DHT22;56847;51.984;5.088;2022-08-01T12:58:31;28.80;41.40
69626;DHT22;56847;51.984;5.088;2022-08-01T13:01:06;28.80;40.50
69626;DHT22;56847;51.984;5.088;2022-08-01T13:03:34;28.90;40.30
69626;DHT22;56847;51.984;5.088;2022-08-01T13:06:13;28.90;40.50
69626;DHT22;56847;51.984;5.088;2022-08-01T13:08:43;28.90;40.00
69626;DHT22;56847;51.984;5.088;2022-08-01T13:11:12;28.90;39.90
69626;DHT22;56847;51.984;5.088;2022-08-01T13:13:53;28.90;39.10
69626;DHT22;56847;51.984;5.088;2022-08-01T13:16:22;28.90;39.00
69626;DHT22;56847;51.984;5.088;2022-08-01T13:19:04;28.80;38.70
69626;DHT22;56847;51.984;5.088;2022-08-01T13:21:31;28.80;38.80
69626;DHT22;56847;51.984;5.088;2022-08-01T13:24:24;28.70;38.70
69626;DHT22;56847;51.984;5.088;2022-08-01T13:26:57;28.60;38.40
69626;DHT22;56847;51.984;5.088;2022-08-01T13:31:59;28.20;38.00
69626;DHT22;56847;51.984;5.088;2022-08-01T13:34:33;28.00;38.00
69626;DHT22;56847;51.984;5.088;2022-08-01T13:37:01;27.90;38.00
69626;DHT22;56847;51.984;5.088;2022-08-01T13:39:33;27.90;38.10
69626;DHT22;56847;51.984;5.088;2022-08-01T13:42:15;27.80;38.50
69626;DHT22;56847;51.984;5.088;2022-08-01T13:44:45;27.80;38.90
69626;DHT22;56847;51.984;5.088;2022-08-01T13:47:12;28.00;39.00
69626;DHT22;56847;51.984;5.088;2022-08-01T13:49:42;28.10;38.60
69626;DHT22;56847;51.984;5.088;2022-08-01T13:52:10;28.20;38.50
69626;DHT22;56847;51.984;5.088;2022-08-01T13:54:37;28.10;38.10
69626;DHT22;56847;51.984;5.088;2022-08-01T13:57:04;28.10;38.00
69626;DHT22;56847;51.984;5.088;2022-08-01T13:59:31;28.10;37.80
69626;DHT22;56847;51.984;5.088;2022-08-01T14:01:59;28.10;38.00
69626;DHT22;56847;51.984;5.088;2022-08-01T14:04:26;28.20;37.90
69626;DHT22;56847;51.984;5.088;2022-08-01T14:06:53;28.20;37.90
69626;DHT22;56847;51.984;5.088;2022-08-01T14:09:20;28.30;38.00
69626;DHT22;56847;51.984;5.088;2022-08-01T14:11:50;28.40;37.90
69626;DHT22;56847;51.984;5.088;2022-08-01T14:14:18;28.40;37.80
69626;DHT22;56847;51.984;5.088;2022-08-01T14:16:46;28.30;38.00
69626;DHT22;56847;51.984;5.088;2022-08-01T14:19:14;28.30;38.10
69626;DHT22;56847;51.984;5.088;2022-08-01T14:21:45;28.30;37.90
69626;DHT22;56847;51.984;5.088;2022-08-01T14:24:14;28.40;38.00
69626;DHT22;56847;51.984;5.088;2022-08-01T14:26:41;28.50;37.70
69626;DHT22;56847;51.984;5.088;2022-08-01T14:29:09;28.50;37.90
69626;DHT22;56847;51.984;5.088;2022-08-01T14:31:38;28.60;37.50
69626;DHT22;56847;51.984;5.088;2022-08-01T14:34:05;28.60;37.30
69626;DHT22;56847;51.984;5.088;2022-08-01T14:36:33;28.70;37.30
69626;DHT22;56847;51.984;5.088;2022-08-01T14:39:04;28.70;37.30
69626;DHT22;56847;51.984;5.088;2022-08-01T14:41:32;28.70;37.00
69626;DHT22;56847;51.984;5.088;2022-08-01T14:43:59;28.70;37.00
69626;DHT22;56847;51.984;5.088;2022-08-01T14:46:26;28.80;36.70
69626;DHT22;56847;51.984;5.088;2022-08-01T14:48:53;28.60;36.40
69626;DHT22;56847;51.984;5.088;2022-08-01T14:51:21;28.60;36.80
69626;DHT22;56847;51.984;5.088;2022-08-01T14:53:48;28.60;36.80
69626;DHT22;56847;51.984;5.088;2022-08-01T14:56:19;28.60;36.90
69626;DHT22;56847;51.984;5.088;2022-08-01T14:58:46;28.50;36.90
69626;DHT22;56847;51.984;5.088;2022-08-01T15:01:14;28.60;37.30
69626;DHT22;56847;51.984;5.088;2022-08-01T15:03:41;28.60;37.10
69626;DHT22;56847;51.984;5.088;2022-08-01T15:06:08;28.70;36.70
69626;DHT22;56847;51.984;5.088;2022-08-01T15:08:38;28.70;36.60
69626;DHT22;56847;51.984;5.088;2022-08-01T15:11:05;28.80;36.70
69626;DHT22;56847;51.984;5.088;2022-08-01T15:13:32;28.80;36.80
69626;DHT22;56847;51.984;5.088;2022-08-01T15:15:59;28.80;36.20
69626;DHT22;56847;51.984;5.088;2022-08-01T15:18:27;28.60;36.20
69626;DHT22;56847;51.984;5.088;2022-08-01T15:20:55;28.60;35.80
69626;DHT22;56847;51.984;5.088;2022-08-01T15:23:22;28.50;35.80
69626;DHT22;56847;51.984;5.088;2022-08-01T15:25:49;28.40;36.00
69626;DHT22;56847;51.984;5.088;2022-08-01T15:28:16;28.50;36.10
69626;DHT22;56847;51.984;5.088;2022-08-01T15:30:43;28.50;36.10
69626;DHT22;56847;51.984;5.088;2022-08-01T15:33:11;28.50;35.90
69626;DHT22;56847;51.984;5.088;2022-08-01T15:35:39;28.60;35.60
69626;DHT22;56847;51.984;5.088;2022-08-01T15:38:06;28.70;35.00
69626;DHT22;56847;51.984;5.088;2022-08-01T15:40:33;28.60;35.00
69626;DHT22;56847;51.984;5.088;2022-08-01T15:43:01;28.60;35.10
69626;DHT22;56847;51.984;5.088;2022-08-01T15:45:29;28.70;35.30
69626;DHT22;56847;51.984;5.088;2022-08-01T15:48:15;28.70;35.20
69626;DHT22;56847;51.984;5.088;2022-08-01T15:50:42;28.80;35.00
69626;DHT22;56847;51.984;5.088;2022-08-01T15:53:09;28.80;35.30
69626;DHT22;56847;51.984;5.088;2022-08-01T15:55:37;28.80;34.70
69626;DHT22;56847;51.984;5.088;2022-08-01T15:58:06;28.70;35.00
69626;DHT22;56847;51.984;5.088;2022-08-01T16:00:34;28.70;35.30
69626;DHT22;56847;51.984;5.088;2022-08-01T16:03:06;28.80;35.50
69626;DHT22;56847;51.984;5.088;2022-08-01T16:05:33;29.00;35.20
69626;DHT22;56847;51.984;5.088;2022-08-01T16:08:10;29.10;35.00
69626;DHT22;56847;51.984;5.088;2022-08-01T16:10:38;29.20;34.80
69626;DHT22;56847;51.984;5.088;2022-08-01T16:13:05;29.20;34.50
69626;DHT22;56847;51.984;5.088;2022-08-01T16:15:34;29.20;34.80
69626;DHT22;56847;51.984;5.088;2022-08-01T16:18:07;29.30;34.70